createdAt,value
2022-10-22T00:02:22.628Z,3.25
2022-10-22T00:04:54.709Z,3.40
2022-10-22T00:07:24.443Z,3.20
2022-10-22T00:09:53.908Z,3.45
2022-10-22T00:12:23.473Z,3.13
2022-10-22T00:14:52.925Z,3.28
2022-10-22T00:17:22.392Z,2.88
2022-10-22T00:19:54.641Z,3.33
2022-10-22T00:22:24.182Z,3.72
2022-10-22T00:24:53.599Z,3.88
2022-10-22T00:27:23.162Z,4.18
2022-10-22T00:29:52.720Z,3.72
2022-10-22T00:32:22.225Z,3.53
2022-10-22T00:34:54.260Z,3.95
2022-10-22T00:37:23.746Z,3.53
2022-10-22T00:39:53.170Z,4.28
2022-10-22T00:42:23.448Z,3.70
2022-10-22T00:45:10.702Z,3.95
2022-10-22T00:47:41.833Z,4.13
2022-10-22T00:50:15.583Z,3.60
2022-10-22T00:52:45.201Z,4.15
2022-10-22T00:55:15.219Z,4.13
2022-10-22T00:57:44.977Z,3.58
2022-10-22T01:00:15.072Z,3.25
2022-10-22T01:02:44.522Z,3.42
2022-10-22T01:05:16.904Z,3.28
2022-10-22T01:07:47.724Z,3.08
2022-10-22T01:10:21.481Z,3.38
2022-10-22T01:12:56.383Z,2.80
2022-10-22T01:15:27.644Z,3.47
2022-10-22T01:18:00.137Z,3.75
2022-10-22T01:20:49.822Z,3.15
2022-10-22T01:23:26.021Z,2.75
2022-10-22T01:25:58.873Z,3.10
2022-10-22T01:28:34.846Z,2.95
2022-10-22T01:31:08.458Z,3.03
2022-10-22T01:33:38.753Z,3.50
2022-10-22T01:36:08.610Z,2.85
2022-10-22T01:38:38.757Z,2.90
2022-10-22T01:41:08.507Z,2.88
2022-10-22T01:43:38.174Z,2.83
2022-10-22T01:46:10.535Z,2.88
2022-10-22T01:48:47.490Z,2.80
2022-10-22T01:51:32.628Z,3.33
2022-10-22T01:54:05.591Z,3.20
2022-10-22T01:56:41.171Z,2.95
2022-10-22T01:59:15.266Z,2.38
2022-10-22T02:01:52.174Z,2.88
2022-10-22T02:04:23.305Z,2.60
2022-10-22T02:06:53.730Z,2.75
2022-10-22T02:09:24.598Z,2.83
2022-10-22T02:11:54.733Z,2.78
2022-10-22T02:14:24.478Z,2.50
2022-10-22T02:16:56.934Z,2.45
2022-10-22T02:19:28.711Z,1.95
2022-10-22T02:21:58.269Z,2.58
2022-10-22T02:24:28.294Z,2.30
2022-10-22T02:27:04.022Z,2.28
2022-10-22T02:29:38.077Z,2.00
2022-10-22T02:32:12.432Z,2.50
2022-10-22T02:34:42.024Z,2.10
2022-10-22T02:37:12.111Z,2.20
2022-10-22T02:39:42.029Z,2.17
2022-10-22T02:42:12.219Z,2.13
2022-10-22T02:44:41.653Z,2.22
2022-10-22T02:47:13.725Z,2.15
2022-10-22T02:49:43.206Z,2.08
2022-10-22T02:52:12.639Z,2.20
2022-10-22T02:54:42.144Z,2.13
2022-10-22T02:57:11.695Z,1.90
2022-10-22T02:59:41.184Z,1.77
2022-10-22T03:02:13.206Z,1.88
2022-10-22T03:04:43.591Z,2.03
2022-10-22T03:07:13.014Z,1.70
2022-10-22T03:09:42.447Z,1.45
2022-10-22T03:12:11.981Z,1.88
2022-10-22T03:14:41.397Z,1.65
2022-10-22T03:17:13.470Z,1.48
2022-10-22T03:19:42.948Z,1.60
2022-10-22T03:22:13.913Z,1.75
2022-10-22T03:24:45.209Z,1.85
2022-10-22T03:27:15.894Z,1.95
2022-10-22T03:29:46.968Z,1.50
2022-10-22T03:32:19.056Z,1.77
2022-10-22T03:34:48.597Z,2.15
2022-10-22T03:37:18.168Z,1.30
2022-10-22T03:39:48.049Z,1.80
2022-10-22T03:42:17.675Z,1.63
2022-10-22T03:44:47.080Z,1.33
2022-10-22T03:47:19.121Z,1.73
2022-10-22T03:49:48.607Z,1.35
2022-10-22T03:52:18.048Z,1.40
2022-10-22T03:54:47.545Z,1.80
2022-10-22T03:57:17.298Z,1.67
2022-10-22T03:59:49.267Z,1.38
2022-10-22T04:02:21.736Z,1.83
2022-10-22T04:04:51.278Z,1.73
2022-10-22T04:07:20.746Z,1.67
2022-10-22T04:09:50.238Z,1.83
2022-10-22T04:12:19.714Z,2.22
2022-10-22T04:14:49.150Z,1.88
2022-10-22T04:17:21.233Z,1.30
2022-10-22T04:19:50.741Z,1.48
2022-10-22T04:22:20.145Z,1.60
2022-10-22T04:27:39.745Z,1.58
2022-10-22T04:30:10.337Z,1.27
2022-10-22T04:32:42.363Z,1.70
2022-10-22T04:35:11.931Z,1.60
2022-10-22T04:37:41.592Z,1.65
2022-10-22T04:40:11.991Z,1.55
2022-10-22T04:42:41.512Z,1.10
2022-10-22T04:45:11.735Z,1.42
2022-10-22T04:47:43.995Z,1.10
2022-10-22T04:50:13.649Z,1.08
2022-10-22T04:52:43.071Z,1.15
2022-10-22T04:55:12.844Z,1.58
2022-10-22T04:57:42.808Z,1.30
2022-10-22T05:00:13.330Z,1.52
2022-10-22T05:02:46.055Z,1.65
2022-10-22T05:05:15.573Z,1.15
2022-10-22T05:07:44.984Z,1.23
2022-10-22T05:10:14.513Z,1.10
2022-10-22T05:12:43.928Z,0.75
2022-10-22T05:15:13.806Z,1.25
2022-10-22T05:17:45.893Z,1.10
2022-10-22T05:20:15.367Z,1.25
2022-10-22T05:22:44.849Z,1.10
2022-10-22T05:25:14.526Z,1.27
2022-10-22T05:27:44.125Z,1.17
2022-10-22T05:30:14.328Z,0.90
2022-10-22T05:32:46.574Z,1.15
2022-10-22T05:35:16.136Z,1.20
2022-10-22T05:37:45.648Z,1.05
2022-10-22T05:40:26.899Z,0.80
2022-10-22T05:43:01.328Z,1.33
2022-10-22T05:45:30.813Z,0.82
2022-10-22T05:48:02.852Z,1.17
2022-10-22T05:50:32.329Z,0.85
2022-10-22T05:53:01.776Z,1.02
2022-10-22T05:55:31.341Z,1.00
2022-10-22T05:58:00.776Z,1.15
2022-10-22T06:00:30.321Z,1.02
2022-10-22T06:02:59.735Z,1.20
2022-10-22T06:05:32.005Z,1.00
2022-10-22T06:08:01.517Z,1.00
2022-10-22T06:10:30.975Z,1.13
2022-10-22T06:13:01.611Z,1.10
2022-10-22T06:15:31.054Z,1.27
2022-10-22T06:18:00.774Z,1.13
2022-10-22T06:20:32.857Z,2.13
2022-10-22T06:23:02.351Z,3.63
2022-10-22T06:25:31.798Z,3.17
2022-10-22T06:28:04.127Z,3.10
2022-10-22T06:30:33.682Z,2.80
2022-10-22T06:33:03.123Z,2.20
2022-10-22T06:35:36.017Z,2.00
2022-10-22T06:38:06.412Z,1.70
2022-10-22T06:40:35.906Z,2.35
2022-10-22T06:43:06.161Z,1.70
2022-10-22T06:45:35.606Z,1.83
2022-10-22T06:48:05.090Z,2.10
2022-10-22T06:50:37.187Z,1.73
2022-10-22T06:53:06.818Z,1.80
2022-10-22T06:55:38.287Z,2.40
2022-10-22T06:58:07.780Z,2.30
2022-10-22T07:00:37.193Z,2.17
2022-10-22T07:03:06.672Z,1.63
2022-10-22T07:05:39.244Z,2.08
2022-10-22T07:08:08.849Z,1.60
2022-10-22T07:10:38.278Z,1.88
2022-10-22T07:13:07.758Z,1.55
2022-10-22T07:15:37.196Z,2.08
2022-10-22T07:18:06.904Z,2.00
2022-10-22T07:20:38.969Z,1.38
2022-10-22T07:23:08.501Z,1.17
2022-10-22T07:25:38.371Z,1.02
2022-10-22T07:28:11.008Z,1.38
2022-10-22T07:30:41.613Z,1.40
2022-10-22T07:33:11.058Z,3.25
2022-10-22T07:35:43.625Z,3.05
2022-10-22T07:38:13.209Z,2.15
2022-10-22T07:40:42.642Z,1.58
2022-10-22T07:43:12.143Z,1.70
2022-10-22T07:45:41.941Z,1.13
2022-10-22T07:48:11.481Z,1.15
2022-10-22T07:53:14.022Z,1.10
2022-10-22T07:55:43.418Z,0.90
2022-10-22T07:58:12.878Z,0.82
2022-10-22T08:00:42.289Z,1.40
2022-10-22T08:03:12.410Z,0.80
2022-10-22T08:05:45.264Z,0.80
2022-10-22T08:08:15.183Z,1.10
2022-10-22T08:10:44.634Z,1.10
2022-10-22T08:13:14.135Z,1.30
2022-10-22T08:18:34.152Z,1.02
2022-10-22T08:21:06.421Z,1.30
2022-10-22T08:23:35.958Z,1.00
2022-10-22T08:26:05.759Z,0.98
2022-10-22T08:28:37.244Z,1.45
2022-10-22T08:31:07.741Z,1.17
2022-10-22T08:33:38.869Z,1.67
2022-10-22T08:36:11.547Z,1.25
2022-10-22T08:38:41.335Z,1.42
2022-10-22T08:41:12.545Z,1.40
2022-10-22T08:43:50.272Z,1.38
2022-10-22T08:46:31.289Z,1.38
2022-10-22T08:49:03.224Z,1.05
2022-10-22T08:51:37.031Z,0.65
2022-10-22T08:54:24.482Z,0.77
2022-10-22T08:57:00.472Z,0.75
2022-10-22T08:59:31.015Z,0.80
2022-10-22T09:02:00.698Z,0.82
2022-10-22T09:04:33.746Z,0.85
2022-10-22T09:07:05.931Z,0.88
2022-10-22T09:09:36.626Z,0.65
2022-10-22T09:12:08.682Z,2.13
2022-10-22T09:14:38.382Z,2.05
2022-10-22T09:17:16.246Z,0.90
2022-10-22T09:19:51.934Z,1.00
2022-10-22T09:22:27.938Z,0.93
2022-10-22T09:25:00.876Z,1.13
2022-10-22T09:27:33.571Z,0.90
2022-10-22T09:30:03.779Z,1.23
2022-10-22T09:32:34.206Z,1.10
2022-10-22T09:35:03.897Z,0.90
2022-10-22T09:37:35.891Z,0.95
2022-10-22T09:40:07.706Z,0.80
2022-10-22T09:42:37.174Z,0.98
2022-10-22T09:45:07.077Z,0.70
2022-10-22T09:47:43.639Z,0.80
2022-10-22T09:50:29.104Z,0.60
2022-10-22T09:53:07.644Z,1.20
2022-10-22T09:55:38.491Z,0.90
2022-10-22T09:58:07.996Z,0.60
2022-10-22T10:00:37.431Z,1.20
2022-10-22T10:03:06.989Z,0.90
2022-10-22T10:05:37.803Z,0.82
2022-10-22T10:08:15.705Z,0.60
2022-10-22T10:10:48.556Z,1.33
2022-10-22T10:13:24.713Z,0.70
2022-10-22T10:15:57.846Z,1.08
2022-10-22T10:18:33.839Z,0.57
2022-10-22T10:21:08.610Z,0.63
2022-10-22T10:23:46.873Z,0.50
2022-10-22T10:26:19.080Z,1.05
2022-10-22T10:28:57.955Z,0.77
2022-10-22T10:31:35.702Z,0.50
2022-10-22T10:34:11.503Z,0.80
2022-10-22T10:36:45.358Z,1.30
2022-10-22T10:39:20.772Z,1.23
2022-10-22T10:41:54.793Z,0.80
2022-10-22T10:44:33.240Z,0.63
2022-10-22T10:47:08.340Z,0.80
2022-10-22T10:49:38.319Z,0.80
2022-10-22T10:52:15.234Z,0.40
2022-10-22T10:54:57.310Z,1.20
2022-10-22T10:57:33.454Z,1.55
2022-10-22T11:00:05.849Z,1.00
2022-10-22T11:02:57.528Z,1.80
2022-10-22T11:05:31.207Z,1.15
2022-10-22T11:08:10.153Z,1.17
2022-10-22T11:10:43.623Z,1.30
2022-10-22T11:13:17.089Z,1.10
2022-10-22T11:15:48.639Z,0.50
2022-10-22T11:18:21.815Z,0.63
2022-10-22T11:20:53.734Z,0.70
2022-10-22T11:23:27.303Z,0.70
2022-10-22T11:25:59.414Z,0.73
2022-10-22T11:28:30.448Z,0.77
2022-10-22T11:31:02.092Z,0.80
2022-10-22T11:33:35.929Z,0.65
2022-10-22T11:36:06.626Z,0.60
2022-10-22T11:38:36.893Z,0.40
2022-10-22T11:41:12.477Z,0.52
2022-10-22T11:43:55.193Z,0.65
2022-10-22T11:46:31.240Z,0.35
2022-10-22T11:49:05.003Z,0.68
2022-10-22T11:51:38.386Z,0.60
2022-10-22T11:54:29.629Z,0.82
2022-10-22T11:57:20.019Z,0.70
2022-10-22T11:59:52.365Z,0.82
2022-10-22T12:02:33.429Z,0.68
2022-10-22T12:05:17.966Z,1.05
2022-10-22T12:07:54.518Z,1.55
2022-10-22T12:10:24.927Z,1.00
2022-10-22T12:12:58.620Z,1.25
2022-10-22T12:15:29.536Z,2.30
2022-10-22T12:18:02.744Z,0.50
2022-10-22T12:20:32.719Z,1.25
2022-10-22T12:23:02.787Z,0.28
2022-10-22T12:25:35.835Z,0.50
2022-10-22T12:28:09.914Z,0.50
2022-10-22T12:30:39.595Z,0.73
2022-10-22T12:33:10.299Z,0.80
2022-10-22T12:35:45.336Z,0.52
2022-10-22T12:38:17.719Z,0.50
2022-10-22T12:40:48.762Z,0.50
2022-10-22T12:43:22.241Z,0.68
2022-10-22T12:45:52.699Z,0.57
2022-10-22T12:48:23.394Z,0.88
2022-10-22T12:50:54.549Z,0.98
2022-10-22T12:53:25.810Z,0.43
2022-10-22T12:55:56.657Z,0.45
2022-10-22T12:58:30.546Z,0.75
2022-10-22T13:01:02.204Z,0.65
2022-10-22T13:03:33.233Z,0.88
2022-10-22T13:06:14.681Z,0.70
2022-10-22T13:08:44.329Z,0.50
2022-10-22T13:11:14.390Z,0.32
2022-10-22T13:13:47.338Z,0.80
2022-10-22T13:16:21.861Z,0.63
2022-10-22T13:18:51.624Z,0.50
2022-10-22T13:21:29.249Z,0.40
2022-10-22T13:24:00.196Z,0.38
2022-10-22T13:26:34.336Z,0.85
2022-10-22T13:29:12.298Z,0.30
2022-10-22T13:31:47.669Z,0.60
2022-10-22T13:34:19.717Z,0.20
2022-10-22T13:36:49.558Z,0.30
2022-10-22T13:39:20.790Z,0.40
2022-10-22T13:41:50.638Z,0.30
2022-10-22T13:44:22.790Z,0.50
2022-10-22T13:46:52.394Z,0.47
2022-10-22T13:49:23.555Z,0.28
2022-10-22T13:51:53.727Z,0.45
2022-10-22T13:54:25.322Z,0.30
2022-10-22T13:56:54.917Z,0.30
2022-10-22T13:59:26.989Z,0.38
2022-10-22T14:01:57.190Z,0.35
2022-10-22T14:04:26.745Z,0.30
2022-10-22T14:06:58.755Z,0.10
2022-10-22T14:09:30.905Z,0.57
2022-10-22T14:12:00.388Z,0.47
2022-10-22T14:14:32.797Z,0.60
2022-10-22T14:17:02.469Z,0.35
2022-10-22T14:19:32.867Z,0.47
2022-10-22T14:22:02.346Z,0.73
2022-10-22T14:24:31.850Z,0.38
2022-10-22T14:27:01.474Z,0.45
2022-10-22T14:29:33.600Z,0.50
2022-10-22T14:32:03.222Z,0.32
2022-10-22T14:34:32.765Z,0.20
2022-10-22T14:37:02.289Z,0.30
2022-10-22T14:39:31.846Z,0.55
2022-10-22T14:42:01.341Z,0.30
2022-10-22T14:44:33.547Z,0.47
2022-10-22T14:47:03.316Z,0.68
2022-10-22T14:49:32.764Z,0.30
2022-10-22T14:52:02.323Z,0.50
2022-10-22T14:54:31.948Z,0.98
2022-10-22T14:57:01.413Z,0.85
2022-10-22T14:59:33.730Z,0.60
2022-10-22T15:02:03.306Z,0.50
2022-10-22T15:04:32.804Z,0.52
2022-10-22T15:07:02.334Z,0.43
2022-10-22T15:09:31.850Z,0.22
2022-10-22T15:12:01.426Z,0.30
2022-10-22T15:14:33.764Z,0.75
2022-10-22T15:17:03.332Z,0.22
2022-10-22T15:19:32.853Z,0.25
2022-10-22T15:22:02.556Z,0.60
2022-10-22T15:24:31.991Z,0.52
2022-10-22T15:27:01.446Z,0.63
2022-10-22T15:29:33.712Z,0.50
2022-10-22T15:32:03.462Z,0.50
2022-10-22T15:34:34.736Z,0.93
2022-10-22T15:37:05.362Z,0.57
2022-10-22T15:39:35.281Z,0.55
2022-10-22T15:42:04.707Z,0.40
2022-10-22T15:44:36.859Z,0.35
2022-10-22T15:47:07.371Z,0.82
2022-10-22T15:49:37.539Z,0.82
2022-10-22T15:52:07.226Z,1.38
2022-10-22T15:54:36.687Z,2.00
2022-10-22T15:57:08.747Z,2.40
2022-10-22T15:59:40.839Z,1.20
2022-10-22T16:02:10.579Z,1.02
2022-10-22T16:04:40.449Z,1.15
2022-10-22T16:07:10.129Z,0.82
2022-10-22T16:09:39.655Z,1.13
2022-10-22T16:12:10.158Z,0.68
2022-10-22T16:14:43.136Z,0.80
2022-10-22T16:17:13.169Z,0.98
2022-10-22T16:19:42.630Z,0.93
2022-10-22T16:22:13.872Z,0.93
2022-10-22T16:24:43.333Z,1.00
2022-10-22T16:27:13.117Z,0.70
2022-10-22T16:29:45.255Z,1.25
2022-10-22T16:32:16.277Z,1.67
2022-10-22T16:34:45.772Z,1.67
2022-10-22T16:37:15.208Z,1.90
2022-10-22T16:39:44.659Z,1.98
2022-10-22T16:42:14.168Z,2.20
2022-10-22T16:44:46.299Z,1.50
2022-10-22T16:47:15.858Z,2.65
2022-10-22T16:49:45.353Z,1.80
2022-10-22T16:52:14.794Z,1.50
2022-10-22T16:54:44.299Z,1.48
2022-10-22T16:57:14.362Z,1.10
2022-10-22T16:59:46.501Z,1.73
2022-10-22T17:02:16.052Z,1.35
2022-10-22T17:04:45.501Z,1.02
2022-10-22T17:07:14.950Z,1.65
2022-10-22T17:09:44.403Z,1.50
2022-10-22T17:12:13.852Z,1.52
2022-10-22T17:14:46.162Z,1.73
2022-10-22T17:17:15.670Z,1.60
2022-10-22T17:19:45.068Z,2.38
2022-10-22T17:22:16.278Z,2.00
2022-10-22T17:24:47.855Z,2.22
2022-10-22T17:27:17.266Z,2.08
2022-10-22T17:29:49.377Z,2.63
2022-10-22T17:32:18.931Z,2.58
2022-10-22T17:34:48.413Z,2.40
2022-10-22T17:37:17.919Z,2.05
2022-10-22T17:39:47.785Z,2.20
2022-10-22T17:42:17.347Z,2.42
2022-10-22T17:44:49.457Z,2.08
2022-10-22T17:47:19.097Z,1.65
2022-10-22T17:49:48.537Z,1.42
2022-10-22T17:52:18.355Z,1.35
2022-10-22T17:54:47.832Z,1.58
2022-10-22T17:57:17.269Z,2.10
2022-10-22T17:59:49.363Z,3.00
2022-10-22T18:02:19.482Z,2.63
2022-10-22T18:04:48.966Z,4.07
2022-10-22T18:07:18.439Z,3.85
2022-10-22T18:09:48.014Z,3.50
2022-10-22T18:12:18.133Z,4.70
2022-10-22T18:14:50.638Z,6.20
2022-10-22T18:17:20.153Z,6.95
2022-10-22T18:19:50.859Z,6.00
2022-10-22T18:22:20.392Z,4.30
2022-10-22T18:24:49.922Z,3.20
2022-10-22T18:27:19.483Z,2.70
2022-10-22T18:29:54.483Z,2.67
2022-10-22T18:32:24.000Z,2.92
2022-10-22T18:34:53.419Z,3.63
2022-10-22T18:37:22.889Z,3.95
2022-10-22T18:39:52.374Z,3.17
2022-10-22T18:42:21.829Z,2.90
2022-10-22T18:44:54.934Z,2.90
2022-10-22T18:47:24.507Z,2.58
2022-10-22T18:49:53.953Z,3.10
2022-10-22T18:52:24.633Z,3.10
2022-10-22T18:54:54.468Z,2.53
2022-10-22T18:57:24.609Z,2.42
2022-10-22T18:59:59.292Z,3.95
2022-10-22T19:02:30.111Z,4.43
2022-10-22T19:04:59.603Z,5.95
2022-10-22T19:07:29.083Z,3.80
2022-10-22T19:10:00.807Z,4.63
2022-10-22T19:12:30.398Z,4.32
2022-10-22T19:15:02.757Z,4.20
2022-10-22T19:17:32.692Z,3.30
2022-10-22T19:20:02.203Z,3.00
2022-10-22T19:22:31.760Z,1.73
2022-10-22T19:25:01.226Z,2.28
2022-10-22T19:27:31.737Z,4.20
2022-10-22T19:30:03.926Z,3.97
2022-10-22T19:32:33.517Z,3.78
2022-10-22T19:35:03.008Z,4.78
2022-10-22T19:37:32.560Z,3.08
2022-10-22T19:40:02.108Z,3.00
2022-10-22T19:42:31.975Z,2.95
2022-10-22T19:45:04.040Z,3.42
2022-10-22T19:47:33.530Z,2.75
2022-10-22T19:50:03.050Z,1.80
2022-10-22T19:52:33.118Z,1.98
2022-10-22T19:55:02.537Z,1.98
2022-10-22T19:57:32.149Z,1.42
2022-10-22T20:00:04.237Z,1.60
2022-10-22T20:02:39.450Z,1.23
2022-10-22T20:05:09.429Z,2.88
2022-10-22T20:07:39.413Z,2.50
2022-10-22T20:10:09.262Z,2.65
2022-10-22T20:12:38.739Z,1.88
2022-10-22T20:15:12.219Z,3.38
2022-10-22T20:17:42.124Z,3.90
2022-10-22T20:20:12.117Z,3.17
2022-10-22T20:22:43.236Z,3.72
2022-10-22T20:25:13.439Z,3.00
2022-10-22T20:27:42.913Z,1.70
2022-10-22T20:33:06.118Z,2.72
2022-10-22T20:35:35.664Z,4.10
2022-10-22T20:38:05.298Z,4.60
2022-10-22T20:40:35.024Z,3.80
2022-10-22T20:43:04.526Z,3.78
2022-10-22T20:45:37.805Z,3.72
2022-10-22T20:48:08.028Z,3.42
2022-10-22T20:50:37.688Z,3.88
2022-10-22T20:53:07.229Z,3.47
2022-10-22T20:55:37.345Z,3.72
2022-10-22T20:58:06.858Z,5.53
2022-10-22T21:00:39.819Z,6.70
2022-10-22T21:03:09.421Z,5.72
2022-10-22T21:05:38.888Z,3.97
2022-10-22T21:08:08.508Z,2.75
2022-10-22T21:10:37.989Z,2.47
2022-10-22T21:13:07.483Z,2.67
2022-10-22T21:15:39.752Z,2.60
2022-10-22T21:18:09.317Z,2.05
2022-10-22T21:20:39.116Z,2.05
2022-10-22T21:23:08.653Z,1.80
2022-10-22T21:25:41.962Z,2.65
2022-10-22T21:28:13.693Z,2.27
2022-10-22T21:30:49.785Z,2.70
2022-10-22T21:33:19.559Z,2.80
2022-10-22T21:35:55.428Z,2.45
2022-10-22T21:38:25.974Z,2.20
2022-10-22T21:43:24.686Z,2.40
2022-10-22T21:46:07.947Z,2.60
2022-10-22T21:48:38.741Z,2.30
2022-10-22T21:51:09.587Z,2.50
2022-10-22T21:53:39.781Z,1.90
2022-10-22T21:56:10.525Z,3.00
2022-10-22T21:58:40.306Z,2.33
2022-10-22T22:01:12.711Z,1.55
2022-10-22T22:03:43.717Z,1.95
2022-10-22T22:06:13.832Z,3.35
2022-10-22T22:08:43.455Z,3.67
2022-10-22T22:11:14.341Z,3.05
2022-10-22T22:13:43.845Z,3.67
2022-10-22T22:16:17.534Z,3.10
2022-10-22T22:18:47.073Z,3.60
2022-10-22T22:21:17.601Z,3.78
2022-10-22T22:23:47.760Z,3.60
2022-10-22T22:26:18.779Z,3.65
2022-10-22T22:28:48.361Z,3.47
2022-10-22T22:31:21.459Z,3.38
2022-10-22T22:33:51.012Z,2.88
2022-10-22T22:36:20.510Z,3.10
2022-10-22T22:38:49.958Z,3.10
2022-10-22T22:41:19.401Z,3.40
2022-10-22T22:43:49.378Z,3.03
2022-10-22T22:46:21.594Z,3.30
2022-10-22T22:48:51.630Z,2.42
2022-10-22T22:51:21.162Z,2.53
2022-10-22T22:53:50.732Z,2.90
2022-10-22T22:56:21.548Z,2.40
2022-10-22T22:58:51.073Z,2.80
2022-10-22T23:01:24.834Z,2.22
2022-10-22T23:03:56.440Z,2.20
2022-10-22T23:06:26.383Z,2.53
2022-10-22T23:08:56.304Z,2.30
2022-10-22T23:11:26.769Z,2.70
2022-10-22T23:13:57.372Z,2.50
2022-10-22T23:16:30.992Z,2.28
2022-10-22T23:19:00.899Z,2.92
2022-10-22T23:21:31.223Z,2.38
2022-10-22T23:24:01.961Z,2.70
2022-10-22T23:26:32.915Z,2.45
2022-10-22T23:29:02.876Z,2.08
2022-10-22T23:31:34.939Z,2.90
2022-10-22T23:34:04.924Z,2.75
2022-10-22T23:36:34.538Z,2.53
2022-10-22T23:39:06.302Z,2.45
2022-10-22T23:41:35.872Z,2.03
2022-10-22T23:44:05.396Z,2.30
2022-10-22T23:46:38.583Z,2.05
2022-10-22T23:49:08.428Z,2.75
2022-10-22T23:51:37.986Z,1.90
2022-10-22T23:54:08.804Z,1.98
2022-10-22T23:56:38.384Z,1.90
2022-10-22T23:59:07.945Z,2.28
